Time;durP1;ratioP1;P1;durP2;ratioP2;P2;SDS_P1;SDS_P2;PMS_P1;PMS_P2;Temp;Humidity;BMP_temperature;BMP_pressure;BME280_temperature;BME280_humidity;BME280_pressure;Samples;Min_cycle;Max_cycle;Signal;HPM_P1;HPM_P2
2022/01/06 00:00:47;;;;;;;14.32;6.30;;;;;;;0.02;79.32;101283.91;5024610;28;20046;-84
2022/01/06 00:03:14;;;;;;;12.13;5.45;;;;;;;0.03;79.20;101288.25;5025886;28;20131;-83
2022/01/06 00:05:41;;;;;;;9.07;4.60;;;;;;;0.03;79.59;101285.53;5008609;28;20077;-84
2022/01/06 00:08:08;;;;;;;7.07;3.88;;;;;;;0.03;79.21;101277.38;5027402;28;20116;-84
2022/01/06 00:10:35;;;;;;;7.15;3.90;;;;;;;0.02;79.42;101273.03;5023786;28;20097;-83
2022/01/06 00:13:10;;;;;;;9.18;3.72;;;;;;;0.04;79.13;101264.59;5013616;28;20084;-84
2022/01/06 00:15:54;;;;;;;13.02;4.88;;;;;;;0.01;79.17;101260.50;5021311;28;20501;-80
2022/01/06 00:18:38;;;;;;;9.18;3.50;;;;;;;0.02;79.08;101264.88;5023322;28;20155;-83
2022/01/06 00:23:50;;;;;;;10.13;4.75;;;;;;;0.00;78.81;101234.38;5023642;28;20065;-81
2022/01/06 00:26:17;;;;;;;14.20;4.00;;;;;;;-0.04;78.83;101227.81;5009805;28;20060;-81
2022/01/06 00:28:44;;;;;;;7.75;4.05;;;;;;;-0.05;78.82;101221.53;5025634;28;20041;-81
2022/01/06 00:31:11;;;;;;;8.35;4.82;;;;;;;-0.07;78.56;101225.59;5026313;28;20128;-81
2022/01/06 00:33:38;;;;;;;10.13;4.55;;;;;;;-0.08;78.95;101207.66;5008235;28;20077;-80
2022/01/06 00:36:05;;;;;;;8.02;3.72;;;;;;;-0.09;78.91;101211.44;5026082;28;20118;-80
2022/01/06 00:38:31;;;;;;;7.90;3.28;;;;;;;-0.07;78.61;101209.28;5019130;28;20143;-81
2022/01/06 00:40:59;;;;;;;5.00;3.13;;;;;;;-0.06;78.66;101202.75;5009609;28;20053;-80
2022/01/06 00:43:26;;;;;;;6.40;3.25;;;;;;;-0.04;78.70;101192.41;5027428;28;20083;-80
2022/01/06 00:45:53;;;;;;;7.82;3.17;;;;;;;-0.03;78.27;101183.19;5025920;28;20045;-81
2022/01/06 00:48:20;;;;;;;11.02;3.08;;;;;;;-0.03;78.35;101183.19;5025753;28;20132;-81
2022/01/06 00:50:47;;;;;;;5.13;2.45;;;;;;;0.00;78.45;101171.78;5025570;28;20033;-81
2022/01/06 00:53:14;;;;;;;6.43;2.63;;;;;;;0.00;78.46;101167.13;5010449;28;20069;-81
2022/01/06 00:55:41;;;;;;;8.52;2.47;;;;;;;-0.01;78.25;101149.19;5024873;28;20084;-80
2022/01/06 00:58:09;;;;;;;7.68;2.53;;;;;;;0.01;78.21;101157.06;5025524;28;20124;-81
2022/01/06 01:00:41;;;;;;;4.45;1.63;;;;;;;0.02;77.99;101150.53;5026316;28;20033;-81
2022/01/06 01:03:11;;;;;;;10.70;2.90;;;;;;;0.03;78.05;101133.13;5005303;28;20037;-80
2022/01/06 01:05:44;;;;;;;7.00;2.97;;;;;;;0.05;77.98;101130.97;5021881;28;20040;-80
2022/01/06 01:08:11;;;;;;;5.50;1.52;;;;;;;0.06;77.83;101123.59;5024896;28;20085;-81
2022/01/06 01:10:39;;;;;;;4.32;1.15;;;;;;;0.06;77.92;101127.13;5007834;28;20041;-81
2022/01/06 01:13:11;;;;;;;2.50;1.27;;;;;;;0.08;77.60;101124.97;5024705;28;20029;-81
2022/01/06 01:15:50;;;;;;;;;;;;;;;0.09;77.66;101110.28;5022412;28;20053;-81
2022/01/06 01:18:19;;;;;;;8.65;1.63;;;;;;;0.13;77.66;101099.69;5024889;28;19932;-81
2022/01/06 01:20:48;;;;;;;7.05;1.45;;;;;;;0.17;77.42;101096.16;5021820;28;20045;-81
2022/01/06 01:23:17;;;;;;;8.50;1.33;;;;;;;0.22;77.44;101081.72;5007442;28;20154;-81
2022/01/06 01:25:44;;;;;;;6.55;0.98;;;;;;;0.28;77.04;101076.03;5023325;28;20041;-80
2022/01/06 01:28:12;;;;;;;2.55;1.52;;;;;;;0.35;76.96;101076.59;5023805;28;20816;-80
2022/01/06 01:33:26;;;;;;;2.45;0.63;;;;;;;0.48;76.44;101051.56;5022494;28;20136;-81
2022/01/06 01:35:53;;;;;;;5.20;1.45;;;;;;;0.50;76.67;101052.09;5023493;28;20050;-81
2022/01/06 01:38:20;;;;;;;6.28;1.55;;;;;;;0.53;76.78;101057.00;5025956;28;20037;-81
2022/01/06 01:40:46;;;;;;;5.93;1.25;;;;;;;0.57;76.25;101062.72;5026145;28;20128;-81
2022/01/06 01:43:13;;;;;;;4.15;1.80;;;;;;;0.59;76.27;101055.91;5027369;28;20081;-81
2022/01/06 01:45:46;;;;;;;5.75;1.85;;;;;;;0.62;76.16;101043.66;5023278;28;20076;-80
2022/01/06 01:48:21;;;;;;;;;;;;;;;0.64;75.22;101046.94;5026072;28;20056;-80
2022/01/06 01:50:49;;;;;;;3.22;1.10;;;;;;;0.70;75.79;101045.84;5025226;28;19968;-81
2022/01/06 01:53:15;;;;;;;11.25;1.55;;;;;;;0.73;76.21;101037.13;5007585;28;20045;-81
2022/01/06 01:55:42;;;;;;;2.38;1.25;;;;;;;0.78;76.13;101036.31;5024545;28;20049;-81
2022/01/06 01:58:11;;;;;;;3.42;1.80;;;;;;;0.81;75.92;101028.41;5026259;28;20061;-81
2022/01/06 02:00:38;;;;;;;5.60;1.10;;;;;;;0.85;75.53;101015.84;5025853;28;20041;-82
2022/01/06 02:03:06;;;;;;;2.53;1.20;;;;;;;0.86;75.63;101006.59;5007351;28;20059;-81
2022/01/06 02:05:33;;;;;;;5.18;0.88;;;;;;;0.90;75.64;101015.06;5024451;28;20096;-82
2022/01/06 02:08:01;;;;;;;2.55;0.98;;;;;;;0.93;75.48;101014.47;5025417;28;20049;-81
2022/01/06 02:10:29;;;;;;;1.85;0.70;;;;;;;0.95;75.23;100999.50;5025298;28;20045;-80
2022/01/06 02:12:57;;;;;;;3.50;0.93;;;;;;;0.96;75.40;100992.94;5008136;28;20049;-81
2022/01/06 02:15:24;;;;;;;5.20;1.23;;;;;;;0.98;75.13;101003.59;5034973;28;20123;-81
2022/01/06 02:17:51;;;;;;;4.65;0.82;;;;;;;0.97;75.43;100999.22;5023442;28;20045;-81
2022/01/06 02:20:21;;;;;;;3.75;1.02;;;;;;;0.96;75.41;100978.50;5024074;28;20042;-81
2022/01/06 02:22:49;;;;;;;3.55;0.70;;;;;;;0.95;75.37;100982.34;5022496;28;20045;-81
2022/01/06 02:25:19;;;;;;;2.03;0.85;;;;;;;0.97;75.54;100980.13;5007804;28;20081;-81
2022/01/06 02:27:49;;;;;;;0.98;0.45;;;;;;;0.97;75.34;100977.41;5017530;28;20505;-80
2022/01/06 02:30:16;;;;;;;4.22;0.80;;;;;;;0.98;75.17;100962.69;5007123;28;21080;-81
2022/01/06 02:32:43;;;;;;;1.98;0.70;;;;;;;1.02;75.02;100950.97;5023894;28;20049;-81
2022/01/06 02:35:19;;;;;;;4.05;0.60;;;;;;;1.05;74.79;100939.50;5025149;28;20576;-81
2022/01/06 02:37:46;;;;;;;3.22;0.60;;;;;;;1.11;75.09;100948.50;5023305;28;20069;-81
2022/01/06 02:40:17;;;;;;;2.83;0.47;;;;;;;1.16;74.48;100945.75;5024438;28;20030;-81
2022/01/06 02:42:49;;;;;;;1.98;1.35;;;;;;;1.23;74.47;100938.88;5025153;28;20123;-81
2022/01/06 02:45:17;;;;;;;;;;;;;;;1.28;73.28;100942.69;5023958;28;20496;-80
2022/01/06 02:47:46;;;;;;;7.25;0.85;;;;;;;1.35;74.38;100933.09;5022723;28;20007;-81
2022/01/06 02:50:17;;;;;;;1.35;0.65;;;;;;;1.42;74.24;100933.63;5021962;28;20136;-80
2022/01/06 02:52:44;;;;;;;2.47;0.90;;;;;;;1.48;74.20;100926.25;5023564;28;20103;-81
2022/01/06 02:55:13;;;;;;;2.33;0.63;;;;;;;1.59;74.05;100923.16;5023354;28;20033;-81
2022/01/06 02:57:41;;;;;;;4.50;1.58;;;;;;;1.68;73.98;100910.56;5007460;28;20077;-80
2022/01/06 03:00:11;;;;;;;7.07;0.93;;;;;;;1.77;73.92;100911.59;5020188;28;20037;-79
2022/01/06 03:02:38;;;;;;;4.70;1.02;;;;;;;1.83;73.93;100906.91;5023166;28;20072;-80
2022/01/06 03:05:05;;;;;;;4.70;0.93;;;;;;;1.87;73.83;100899.78;5028035;28;20030;-80
2022/01/06 03:07:32;;;;;;;5.25;0.60;;;;;;;1.93;73.92;100884.19;5025506;28;20161;-80
2022/01/06 03:10:02;;;;;;;3.95;0.80;;;;;;;1.95;74.06;100893.72;5025756;28;20600;-80
2022/01/06 03:12:34;;;;;;;6.22;0.82;;;;;;;1.97;73.58;100880.59;5025073;28;20045;-80
2022/01/06 03:15:01;;;;;;;5.10;1.30;;;;;;;1.99;73.85;100888.50;5026247;28;20058;-79
2022/01/06 03:17:28;;;;;;;6.05;0.98;;;;;;;2.00;73.88;100873.75;5027852;28;20132;-80
2022/01/06 03:19:55;;;;;;;3.50;0.70;;;;;;;2.02;73.81;100871.56;5026172;28;20045;-79
2022/01/06 03:22:22;;;;;;;3.00;0.98;;;;;;;2.03;73.68;100863.09;5025314;28;20029;-79
2022/01/06 03:24:48;;;;;;;5.35;2.15;;;;;;;2.02;73.78;100853.25;5028252;28;20334;-79
2022/01/06 03:27:15;;;;;;;4.40;0.68;;;;;;;2.01;73.92;100845.38;5026243;28;20037;-79
2022/01/06 03:29:42;;;;;;;4.65;0.80;;;;;;;2.00;73.94;100838.25;5027901;28;20123;-79
2022/01/06 03:32:09;;;;;;;3.17;1.70;;;;;;;2.00;74.23;100824.63;5008448;28;20045;-79
2022/01/06 03:34:37;;;;;;;5.78;3.17;;;;;;;1.98;74.31;100815.91;5025708;28;20072;-79
2022/01/06 03:37:06;;;;;;;5.03;0.70;;;;;;;1.96;74.44;100810.72;5041846;28;20037;-79
2022/01/06 03:39:33;;;;;;;2.05;0.65;;;;;;;1.95;74.38;100813.75;5009903;28;20081;-79
2022/01/06 03:42:00;;;;;;;2.85;0.73;;;;;;;1.93;74.39;100797.66;5019922;28;20428;-79
2022/01/06 03:44:27;;;;;;;7.28;1.38;;;;;;;1.93;74.53;100799.56;5024003;28;20124;-79
2022/01/06 03:46:54;;;;;;;3.35;1.88;;;;;;;1.89;74.88;100780.22;5026962;28;20053;-79
2022/01/06 03:49:22;;;;;;;3.92;1.00;;;;;;;1.89;74.39;100773.94;5025656;28;20060;-79
2022/01/06 03:51:49;;;;;;;8.80;1.17;;;;;;;1.88;74.69;100761.41;5026824;28;20069;-79
2022/01/06 03:54:16;;;;;;;4.28;0.73;;;;;;;1.89;74.86;100741.16;5025539;28;20045;-79
2022/01/06 03:56:43;;;;;;;12.02;1.42;;;;;;;1.93;75.07;100742.25;5026981;28;20073;-79
2022/01/06 03:59:10;;;;;;;4.75;0.68;;;;;;;1.95;74.86;100737.31;5026063;28;20052;-79
2022/01/06 04:01:37;;;;;;;2.90;0.95;;;;;;;1.98;75.05;100712.97;5026505;28;20042;-79
2022/01/06 04:04:04;;;;;;;9.02;1.10;;;;;;;2.03;75.00;100698.44;5024998;28;20049;-80
2022/01/06 04:06:31;;;;;;;4.03;0.98;;;;;;;2.07;75.32;100694.84;5009127;28;20454;-79
2022/01/06 04:08:58;;;;;;;4.20;0.88;;;;;;;2.13;74.93;100687.41;5009314;28;20052;-80
2022/01/06 04:11:24;;;;;;;5.40;1.40;;;;;;;2.19;75.19;100669.88;5025909;28;20124;-79
2022/01/06 04:13:51;;;;;;;4.25;0.77;;;;;;;2.23;75.58;100671.72;5026351;28;20046;-79
2022/01/06 04:16:18;;;;;;;7.70;0.90;;;;;;;2.29;75.17;100661.53;5024702;28;20057;-79
2022/01/06 04:18:45;;;;;;;4.32;0.73;;;;;;;2.34;75.32;100658.75;5025455;28;20069;-78
2022/01/06 04:21:13;;;;;;;5.22;0.95;;;;;;;2.35;75.44;100636.63;5026158;28;20057;-79
2022/01/06 04:23:40;;;;;;;3.40;0.47;;;;;;;2.42;75.48;100644.44;5023359;28;20186;-79
2022/01/06 04:26:07;;;;;;;2.20;0.50;;;;;;;2.45;75.43;100636.47;5024835;28;20079;-79
2022/01/06 04:28:34;;;;;;;4.55;0.80;;;;;;;2.50;75.39;100635.59;5026381;28;20063;-79
2022/01/06 04:31:00;;;;;;;4.03;0.73;;;;;;;2.52;75.35;100632.53;5027136;28;20116;-80
2022/01/06 04:33:27;;;;;;;3.78;0.70;;;;;;;2.52;75.38;100622.44;5025091;28;20041;-79
2022/01/06 04:35:54;;;;;;;4.07;0.80;;;;;;;2.54;75.83;100614.78;5026327;28;20135;-79
2022/01/06 04:38:22;;;;;;;2.85;0.68;;;;;;;2.55;75.73;100608.19;5025590;28;20481;-79
2022/01/06 04:40:49;;;;;;;5.32;1.15;;;;;;;2.55;75.91;100599.97;5024768;28;20045;-79
2022/01/06 04:43:16;;;;;;;6.70;1.30;;;;;;;2.59;76.00;100587.38;5022569;28;20076;-79
2022/01/06 04:45:43;;;;;;;4.22;0.55;;;;;;;2.61;76.17;100590.59;5025405;28;20429;-80
2022/01/06 04:48:10;;;;;;;5.30;1.15;;;;;;;2.65;76.19;100588.91;5024269;28;20562;-80
2022/01/06 04:50:37;;;;;;;6.45;1.13;;;;;;;2.71;75.92;100579.50;5026455;28;20041;-80
2022/01/06 04:53:04;;;;;;;8.52;0.88;;;;;;;2.74;75.80;100570.72;5009358;28;20057;-80
2022/01/06 04:55:32;;;;;;;4.57;1.13;;;;;;;2.76;75.91;100567.69;5025224;28;20073;-80
2022/01/06 04:57:59;;;;;;;8.30;1.00;;;;;;;2.78;76.29;100571.75;5026887;28;20128;-80
2022/01/06 05:00:26;;;;;;;8.52;1.10;;;;;;;2.80;76.09;100560.53;5018254;28;20045;-80
2022/01/06 05:02:52;;;;;;;5.88;0.65;;;;;;;2.81;76.33;100565.69;5024057;28;20084;-80
2022/01/06 05:05:20;;;;;;;7.32;0.70;;;;;;;2.82;76.31;100572.78;5023273;28;20132;-80
2022/01/06 05:07:46;;;;;;;3.90;1.00;;;;;;;2.82;76.23;100564.59;5024109;28;20102;-79
2022/01/06 05:10:13;;;;;;;4.07;0.70;;;;;;;2.85;76.22;100569.47;5024565;28;20124;-80
2022/01/06 05:12:42;;;;;;;6.43;0.88;;;;;;;2.89;76.48;100564.19;5023817;28;20115;-80
2022/01/06 05:15:10;;;;;;;1.58;0.50;;;;;;;2.93;76.33;100557.84;5022934;28;20083;-80
2022/01/06 05:17:37;;;;;;;3.45;1.15;;;;;;;3.00;76.46;100560.19;5024316;28;20144;-81
2022/01/06 05:20:07;;;;;;;3.70;1.00;;;;;;;3.06;76.73;100554.34;5024283;28;20037;-80
2022/01/06 05:22:36;;;;;;;2.13;0.57;;;;;;;3.16;76.72;100555.25;5024050;28;20489;-80
2022/01/06 05:25:03;;;;;;;3.60;0.85;;;;;;;3.25;76.55;100548.00;5022967;28;20440;-80
2022/01/06 05:27:29;;;;;;;3.25;0.75;;;;;;;3.30;76.47;100537.75;5021561;28;20111;-81
2022/01/06 05:29:56;;;;;;;4.30;0.80;;;;;;;3.34;76.53;100537.94;5026473;28;20065;-81
2022/01/06 05:32:23;;;;;;;5.88;0.60;;;;;;;3.35;76.49;100518.50;5023189;28;20044;-81
2022/01/06 05:34:50;;;;;;;3.40;0.88;;;;;;;3.40;76.64;100520.34;5022803;28;20477;-81
2022/01/06 05:37:17;;;;;;;6.85;0.80;;;;;;;3.42;76.62;100504.41;5025119;28;20069;-80
2022/01/06 05:39:44;;;;;;;9.93;1.45;;;;;;;3.50;76.63;100495.50;5024060;28;20037;-81
2022/01/06 05:42:13;;;;;;;3.75;0.55;;;;;;;3.54;76.42;100489.13;5023641;28;20071;-81
2022/01/06 05:44:41;;;;;;;4.38;0.73;;;;;;;3.58;76.85;100503.00;5023756;28;20045;-81
2022/01/06 05:47:08;;;;;;;4.85;0.80;;;;;;;3.59;76.61;100485.47;5023119;28;20049;-80
2022/01/06 05:49:35;;;;;;;4.97;0.82;;;;;;;3.60;76.48;100492.59;5022667;28;20115;-81
2022/01/06 05:52:02;;;;;;;3.35;0.73;;;;;;;3.63;76.48;100491.94;5022967;28;20077;-81
2022/01/06 05:54:29;;;;;;;5.35;0.85;;;;;;;3.64;76.68;100477.97;5023698;28;20070;-81
2022/01/06 05:56:56;;;;;;;5.97;0.57;;;;;;;3.67;76.93;100471.88;5025099;28;20041;-81
2022/01/06 05:59:23;;;;;;;3.78;0.98;;;;;;;3.68;76.69;100450.78;5020464;28;20124;-79
2022/01/06 06:01:50;;;;;;;1.42;0.90;;;;;;;3.74;76.53;100454.22;5007701;28;20057;-81
2022/01/06 06:04:17;;;;;;;6.13;0.70;;;;;;;3.79;76.71;100448.63;5023912;28;20049;-80
2022/01/06 06:06:43;;;;;;;2.83;0.70;;;;;;;3.81;76.78;100422.59;5025253;28;20091;-80
2022/01/06 06:09:11;;;;;;;4.32;0.90;;;;;;;3.88;76.76;100402.97;5007230;28;20044;-81
2022/01/06 06:11:38;;;;;;;5.80;1.42;;;;;;;3.94;76.77;100405.31;5024777;28;20049;-81
2022/01/06 06:14:05;;;;;;;8.25;4.28;;;;;;;3.97;76.54;100388.22;5026808;28;20116;-81
2022/01/06 06:16:32;;;;;;;5.80;0.73;;;;;;;4.05;76.58;100383.97;5023551;28;20132;-80
2022/01/06 06:18:59;;;;;;;6.75;1.05;;;;;;;4.08;76.50;100375.09;5023834;28;20409;-81
2022/01/06 06:21:26;;;;;;;2.03;0.57;;;;;;;4.10;76.45;100354.50;5023985;28;20076;-81
2022/01/06 06:23:53;;;;;;;3.88;1.10;;;;;;;4.17;76.84;100354.88;5022393;28;20128;-81
2022/01/06 06:26:20;;;;;;;3.63;0.93;;;;;;;4.21;76.26;100339.41;5023795;28;20045;-81
2022/01/06 06:28:47;;;;;;;6.00;1.20;;;;;;;4.25;76.39;100339.63;5021658;28;20087;-81
2022/01/06 06:31:14;;;;;;;4.90;0.95;;;;;;;4.28;76.58;100339.00;5023014;28;20034;-81
2022/01/06 06:33:41;;;;;;;7.57;0.90;;;;;;;4.29;76.76;100314.00;5021217;28;20034;-82
2022/01/06 06:36:08;;;;;;;6.45;0.93;;;;;;;4.36;76.74;100318.25;5021855;28;20049;-81
2022/01/06 06:38:34;;;;;;;8.05;0.98;;;;;;;4.39;76.70;100302.00;5022081;28;20037;-80
2022/01/06 06:41:01;;;;;;;10.20;1.15;;;;;;;4.41;76.99;100285.22;5024610;28;20473;-81
2022/01/06 06:43:28;;;;;;;5.88;0.80;;;;;;;4.40;77.13;100275.38;5020800;28;20041;-81
2022/01/06 06:45:55;;;;;;;3.88;0.82;;;;;;;4.40;77.20;100269.88;5021935;28;20567;-81
2022/01/06 06:48:24;;;;;;;8.02;1.10;;;;;;;4.40;77.61;100253.44;5022001;28;20170;-81
2022/01/06 06:50:51;;;;;;;4.13;1.13;;;;;;;4.43;77.85;100241.84;5024191;28;20038;-81
2022/01/06 06:53:18;;;;;;;4.10;1.00;;;;;;;4.46;77.83;100230.25;5023475;28;20136;-81
2022/01/06 06:55:45;;;;;;;6.00;0.82;;;;;;;4.46;78.22;100224.78;5023226;28;20084;-80
2022/01/06 06:58:12;;;;;;;2.80;1.38;;;;;;;4.44;78.34;100233.31;5023007;28;20544;-81
2022/01/06 07:00:39;;;;;;;5.03;1.77;;;;;;;4.43;79.09;100231.69;5020239;28;20045;-81
2022/01/06 07:03:06;;;;;;;4.20;1.17;;;;;;;4.42;79.03;100229.28;5022284;28;20091;-81
2022/01/06 07:05:33;;;;;;;5.00;2.50;;;;;;;4.42;79.04;100218.31;5023030;28;20038;-81
2022/01/06 07:08:00;;;;;;;10.75;2.28;;;;;;;4.39;80.09;100197.03;5021419;28;20076;-82
2022/01/06 07:10:26;;;;;;;4.18;1.40;;;;;;;4.38;80.16;100179.78;5023446;28;20116;-81
2022/01/06 07:12:53;;;;;;;5.78;0.95;;;;;;;4.37;80.52;100160.91;5022196;28;20138;-81
2022/01/06 07:15:20;;;;;;;6.07;0.93;;;;;;;4.35;80.59;100172.19;5022951;28;20037;-81
2022/01/06 07:17:47;;;;;;;2.42;1.00;;;;;;;4.32;80.82;100170.88;5022136;28;20041;-81
2022/01/06 07:20:14;;;;;;;4.45;1.05;;;;;;;4.29;81.16;100162.47;5022541;28;20088;-81
2022/01/06 07:22:41;;;;;;;4.28;1.08;;;;;;;4.24;81.55;100160.72;5005015;28;20042;-81
2022/01/06 07:25:08;;;;;;;9.95;1.83;;;;;;;4.23;81.63;100150.06;5006140;28;20141;-81
2022/01/06 07:27:35;;;;;;;3.40;0.90;;;;;;;4.19;82.24;100152.63;5020435;28;20087;-81
2022/01/06 07:30:05;;;;;;;8.23;1.25;;;;;;;4.17;82.39;100141.19;5005914;28;20038;-81
2022/01/06 07:32:31;;;;;;;6.18;1.27;;;;;;;4.17;82.53;100134.91;5022992;28;20085;-81
2022/01/06 07:34:58;;;;;;;2.78;0.73;;;;;;;4.14;83.31;100106.22;5023879;28;20050;-81
2022/01/06 07:37:25;;;;;;;4.22;1.20;;;;;;;4.15;83.37;100105.09;5023272;28;20552;-81
2022/01/06 07:39:53;;;;;;;5.47;1.08;;;;;;;4.15;83.67;100105.09;5023500;28;20600;-82
2022/01/06 07:42:20;;;;;;;6.70;1.17;;;;;;;4.17;83.67;100091.88;5023868;28;20140;-81
2022/01/06 07:44:49;;;;;;;3.80;1.27;;;;;;;4.18;83.71;100101.69;5021055;28;20053;-81
2022/01/06 07:47:17;;;;;;;2.70;0.70;;;;;;;4.18;84.31;100079.78;5022015;28;20053;-81
2022/01/06 07:49:43;;;;;;;3.45;0.70;;;;;;;4.22;84.64;100078.03;5021489;28;20049;-82
2022/01/06 07:52:10;;;;;;;3.17;1.00;;;;;;;4.23;84.39;100082.41;5008389;28;20049;-79
2022/01/06 07:54:41;;;;;;;6.50;1.05;;;;;;;4.25;84.44;100082.06;5007618;28;20052;-80
2022/01/06 07:57:08;;;;;;;4.57;1.13;;;;;;;4.26;84.80;100087.22;5024603;28;20044;-81
2022/01/06 07:59:35;;;;;;;4.72;0.95;;;;;;;4.29;85.32;100072.06;5025044;28;20119;-80
2022/01/06 08:02:04;;;;;;;4.57;0.90;;;;;;;4.32;84.90;100061.28;5000836;28;20041;-80
2022/01/06 08:04:31;;;;;;;4.60;0.90;;;;;;;4.35;84.97;100045.31;5026082;28;20037;-80
2022/01/06 08:06:58;;;;;;;3.58;0.75;;;;;;;4.35;84.70;100042.59;5042693;28;20413;-81
2022/01/06 08:09:25;;;;;;;4.63;0.70;;;;;;;4.38;85.52;100030.97;5026229;28;20094;-81
2022/01/06 08:11:52;;;;;;;10.23;1.50;;;;;;;4.43;85.38;100030.81;5010567;28;20041;-81
2022/01/06 08:14:20;;;;;;;2.50;0.70;;;;;;;4.50;85.45;100023.72;5028163;28;20061;-81
2022/01/06 08:16:47;;;;;;;2.40;0.40;;;;;;;4.57;85.67;100006.81;5010124;28;20069;-81
2022/01/06 08:19:16;;;;;;;3.92;0.65;;;;;;;4.63;85.91;100021.97;5027057;28;20064;-81
2022/01/06 08:21:44;;;;;;;3.05;1.40;;;;;;;4.69;85.75;100006.94;5027567;28;20040;-80
2022/01/06 08:24:11;;;;;;;3.78;0.73;;;;;;;4.75;85.58;100000.19;5025861;28;20118;-81
2022/01/06 08:26:38;;;;;;;6.95;0.85;;;;;;;4.81;85.16;99983.25;5027206;28;20241;-81
2022/01/06 08:29:04;;;;;;;3.10;0.77;;;;;;;4.83;85.64;99961.78;5024429;28;20092;-81
2022/01/06 08:31:32;;;;;;;4.60;0.40;;;;;;;4.89;85.79;99976.13;5025028;28;20586;-81
2022/01/06 08:33:59;;;;;;;0.70;0.43;;;;;;;4.96;85.33;99954.47;5010793;28;20033;-82
2022/01/06 08:36:26;;;;;;;2.90;0.47;;;;;;;5.04;85.31;99961.06;5024701;28;20068;-83
2022/01/06 08:38:53;;;;;;;2.45;0.28;;;;;;;5.10;85.32;99952.34;5008122;28;20049;-87
2022/01/06 08:41:20;;;;;;;1.92;0.30;;;;;;;5.17;84.98;99944.41;5019252;28;20079;-83
2022/01/06 08:43:46;;;;;;;1.00;0.40;;;;;;;5.22;84.82;99935.19;5025293;28;20045;-84
2022/01/06 08:46:14;;;;;;;1.65;0.30;;;;;;;5.26;84.66;99928.72;5026652;28;20049;-83
2022/01/06 08:48:41;;;;;;;1.10;0.38;;;;;;;5.32;84.58;99929.34;5024179;28;20077;-83
2022/01/06 08:51:08;;;;;;;2.05;0.95;;;;;;;5.33;84.39;99909.78;5023751;28;20048;-83
2022/01/06 08:53:35;;;;;;;1.85;0.50;;;;;;;5.36;84.73;99892.66;5009818;28;20535;-84
2022/01/06 08:56:01;;;;;;;3.30;0.85;;;;;;;5.39;84.92;99892.00;5025062;28;20559;-84
2022/01/06 08:58:33;;;;;;;2.30;0.30;;;;;;;5.43;85.02;99887.44;5025743;28;20164;-83
2022/01/06 09:01:00;;;;;;;6.60;0.60;;;;;;;5.49;85.01;99894.38;5023734;28;20044;-84
2022/01/06 09:03:27;;;;;;;2.95;0.65;;;;;;;5.51;84.64;99889.34;5021738;28;20565;-83
2022/01/06 09:05:53;;;;;;;2.22;0.60;;;;;;;5.58;85.30;99871.53;5024701;28;20053;-84
2022/01/06 09:08:20;;;;;;;1.65;0.32;;;;;;;5.63;84.91;99874.09;5025890;28;20351;-84
2022/01/06 09:10:47;;;;;;;1.73;0.50;;;;;;;5.68;85.21;99851.94;5023868;28;20084;-82
2022/01/06 09:13:26;;;;;;;3.65;0.50;;;;;;;5.73;84.97;99840.75;5024614;28;20496;-81
2022/01/06 09:15:53;;;;;;;1.02;0.43;;;;;;;5.77;85.07;99849.94;5023455;28;20042;-82
2022/01/06 09:18:20;;;;;;;3.08;0.50;;;;;;;5.79;85.21;99818.25;5008381;28;20060;-81
2022/01/06 09:20:47;;;;;;;1.60;0.52;;;;;;;5.85;85.46;99843.59;5023741;28;20037;-81
2022/01/06 09:23:14;;;;;;;3.65;1.23;;;;;;;5.87;85.28;99819.34;5023986;28;20116;-81
2022/01/06 09:25:41;;;;;;;3.30;0.93;;;;;;;5.89;85.14;99817.06;5024990;28;20084;-81
2022/01/06 09:28:08;;;;;;;2.28;1.00;;;;;;;5.90;85.65;99802.19;5023855;28;20115;-82
2022/01/06 09:30:36;;;;;;;3.03;0.85;;;;;;;5.95;85.70;99789.06;5023692;28;20140;-81
2022/01/06 09:33:03;;;;;;;0.65;0.35;;;;;;;6.02;85.72;99807.72;5025120;28;20060;-81
2022/01/06 09:35:30;;;;;;;2.35;0.47;;;;;;;6.06;85.67;99806.69;5025741;28;20151;-82
2022/01/06 09:37:57;;;;;;;2.35;0.30;;;;;;;6.11;85.75;99791.97;5023086;28;20073;-82
2022/01/06 09:40:24;;;;;;;1.35;0.35;;;;;;;6.17;86.01;99785.09;5023701;28;20047;-82
2022/01/06 09:42:53;;;;;;;1.92;0.45;;;;;;;6.21;85.45;99793.47;5025153;28;20033;-82
2022/01/06 09:45:23;;;;;;;0.50;0.40;;;;;;;6.22;85.63;99784.91;5024513;28;20049;-82
2022/01/06 09:47:51;;;;;;;0.55;0.25;;;;;;;6.23;85.48;99772.75;5005945;28;20076;-82
2022/01/06 09:50:18;;;;;;;1.08;0.63;;;;;;;6.22;86.30;99784.91;5022589;28;20038;-82
2022/01/06 09:52:45;;;;;;;3.72;1.30;;;;;;;6.18;86.94;99775.72;5025063;28;20040;-82
2022/01/06 09:55:13;;;;;;;2.90;1.10;;;;;;;6.14;87.18;99775.59;5024230;28;20095;-82
2022/01/06 09:57:41;;;;;;;4.97;1.30;;;;;;;6.10;87.29;99766.44;5006609;28;20057;-82
2022/01/06 10:00:08;;;;;;;2.40;0.75;;;;;;;6.05;87.94;99761.16;5025662;28;20041;-85
2022/01/06 10:02:37;;;;;;;6.55;1.17;;;;;;;6.02;88.12;99755.53;5020967;28;20037;-82
2022/01/06 10:05:05;;;;;;;6.35;1.13;;;;;;;6.00;88.33;99744.88;5023577;28;20052;-80
2022/01/06 10:07:39;;;;;;;2.97;0.47;;;;;;;5.98;88.98;99757.34;5021681;28;20103;-81
2022/01/06 10:10:12;;;;;;;2.40;0.70;;;;;;;5.97;89.41;99745.56;5022568;28;20076;-81
2022/01/06 10:12:40;;;;;;;4.03;1.83;;;;;;;5.98;89.35;99743.63;5023879;28;20112;-81
2022/01/06 10:15:22;;;;;;;5.15;0.93;;;;;;;5.97;90.31;99736.50;5024544;28;20060;-81
2022/01/06 10:17:49;;;;;;;3.78;1.15;;;;;;;5.99;89.76;99739.72;5018362;28;20041;-81
2022/01/06 10:20:23;;;;;;;3.05;0.70;;;;;;;5.99;90.59;99734.22;5023660;28;20049;-81
2022/01/06 10:22:53;;;;;;;2.53;1.00;;;;;;;5.99;90.94;99735.03;5024058;28;20751;-81
2022/01/06 10:25:22;;;;;;;3.88;1.17;;;;;;;6.00;91.13;99736.63;5032826;28;20041;-82
2022/01/06 10:27:52;;;;;;;7.10;1.23;;;;;;;6.01;92.14;99729.19;5023553;28;20069;-81
2022/01/06 10:30:19;;;;;;;1.35;0.80;;;;;;;6.01;92.71;99705.25;5024677;28;20037;-82
2022/01/06 10:32:46;;;;;;;4.88;1.40;;;;;;;6.02;92.62;99700.56;5023834;28;20362;-81
2022/01/06 10:35:17;;;;;;;5.60;0.90;;;;;;;6.05;92.58;99686.16;5005091;28;20609;-82
2022/01/06 10:37:48;;;;;;;6.90;1.27;;;;;;;6.08;92.95;99712.94;5025067;28;20033;-82
2022/01/06 10:40:19;;;;;;;6.20;1.00;;;;;;;6.09;92.66;99695.31;5006256;28;20057;-81
2022/01/06 10:42:49;;;;;;;6.15;1.10;;;;;;;6.14;92.68;99698.63;5022900;28;20036;-82
2022/01/06 10:45:22;;;;;;;5.53;1.05;;;;;;;6.19;92.93;99692.13;5006078;28;20049;-82
2022/01/06 10:47:55;;;;;;;4.95;1.02;;;;;;;6.22;93.28;99694.22;5022121;28;20095;-82
2022/01/06 10:50:24;;;;;;;5.43;1.00;;;;;;;6.25;93.78;99679.75;5023655;28;20084;-82
2022/01/06 10:52:52;;;;;;;7.03;1.45;;;;;;;6.26;92.99;99675.88;5022552;28;20053;-81
2022/01/06 10:55:23;;;;;;;3.85;1.50;;;;;;;6.32;93.64;99660.78;5023083;28;20146;-81
2022/01/06 10:57:52;;;;;;;5.00;0.80;;;;;;;6.46;94.41;99639.22;5022146;28;20080;-82
2022/01/06 11:00:22;;;;;;;1.55;0.38;;;;;;;6.69;94.37;99664.31;5023299;28;20045;-81
2022/01/06 11:03:45;;;;;;;3.40;0.70;;;;;;;6.87;94.53;99717.13;5021488;28;20057;-80
2022/01/06 11:06:13;;;;;;;1.13;0.45;;;;;;;6.99;95.16;99733.63;5011895;28;20055;-84
2022/01/06 11:08:41;;;;;;;2.05;0.50;;;;;;;6.98;93.90;99745.78;5023665;28;20033;-81
2022/01/06 11:13:38;;;;;;;1.92;0.85;;;;;;;6.73;92.10;99728.47;5023049;28;20033;-81
2022/01/06 11:16:06;;;;;;;6.82;3.38;;;;;;;6.64;92.03;99733.28;5021590;28;20044;-82
2022/01/06 11:18:39;;;;;;;8.02;1.40;;;;;;;6.60;92.10;99716.66;5024493;28;20079;-81
2022/01/06 11:21:17;;;;;;;7.65;1.60;;;;;;;6.56;91.78;99707.53;5022108;28;20049;-81
2022/01/06 11:23:44;;;;;;;9.30;1.15;;;;;;;6.51;92.25;99707.72;5023387;28;20033;-81
2022/01/06 11:26:22;;;;;;;8.18;1.50;;;;;;;6.49;91.92;99701.78;5010478;28;20081;-82
2022/01/06 11:29:00;;;;;;;7.32;1.88;;;;;;;6.47;92.04;99689.50;5010330;28;21570;-81
2022/01/06 11:31:34;;;;;;;14.23;2.35;;;;;;;6.47;92.04;99690.31;5036487;28;20589;-82
2022/01/06 11:34:12;;;;;;;4.70;1.77;;;;;;;6.49;92.06;99696.28;5025820;28;20046;-83
2022/01/06 11:36:40;;;;;;;9.68;1.80;;;;;;;6.52;91.90;99692.84;5027067;28;20033;-82
2022/01/06 11:39:18;;;;;;;12.20;2.20;;;;;;;6.53;91.76;99694.44;5026547;28;20047;-84
2022/01/06 11:41:45;;;;;;;10.57;2.63;;;;;;;6.55;92.00;99685.84;5026474;28;20041;-83
2022/01/06 11:44:26;;;;;;;12.05;2.33;;;;;;;6.59;91.74;99686.78;5009405;28;20425;-82
2022/01/06 11:46:56;;;;;;;8.15;1.90;;;;;;;6.64;91.43;99686.53;5024441;28;20041;-82
2022/01/06 11:49:36;;;;;;;17.20;2.25;;;;;;;6.67;91.98;99678.38;5026577;28;20045;-81